createdAt,value
2017-11-05T00:01:42.298Z,49.97
2017-11-05T00:04:09.893Z,46.57
2017-11-05T00:06:37.517Z,47.57
2017-11-05T00:09:05.139Z,55.07
2017-11-05T00:11:32.750Z,48.40
2017-11-05T00:14:00.421Z,40.00
2017-11-05T00:16:28.327Z,46.33
2017-11-05T00:18:55.928Z,49.00
2017-11-05T00:21:23.552Z,44.47
2017-11-05T00:23:51.406Z,45.60
2017-11-05T00:26:19.057Z,52.53
2017-11-05T00:28:46.943Z,43.13
2017-11-05T00:31:14.549Z,47.90
2017-11-05T00:33:42.273Z,47.70
2017-11-05T00:36:09.875Z,52.33
2017-11-05T00:38:37.508Z,48.53
2017-11-05T00:41:05.140Z,46.40
2017-11-05T00:43:32.819Z,44.87
2017-11-05T00:46:00.485Z,52.63
2017-11-05T00:48:28.128Z,46.60
2017-11-05T00:50:55.730Z,46.80
2017-11-05T00:53:23.671Z,45.93
2017-11-05T00:55:51.269Z,48.40
2017-11-05T00:58:18.892Z,49.50
2017-11-05T01:00:46.534Z,51.27
2017-11-05T01:03:14.151Z,44.43
2017-11-05T01:05:41.780Z,46.90
2017-11-05T01:08:09.403Z,53.70
2017-11-05T01:10:37.003Z,45.07
2017-11-05T01:13:04.659Z,55.07
2017-11-05T01:15:32.308Z,44.90
2017-11-05T01:17:59.953Z,47.87
2017-11-05T01:20:27.557Z,49.60
2017-11-05T01:22:55.155Z,49.10
2017-11-05T01:25:22.783Z,49.07
2017-11-05T01:27:50.383Z,44.00
2017-11-05T01:30:18.015Z,57.57
2017-11-05T01:32:45.661Z,45.30
2017-11-05T01:35:13.271Z,46.83
2017-11-05T01:37:41.791Z,64.70
2017-11-05T01:40:09.678Z,54.70
2017-11-05T01:42:37.353Z,45.07
2017-11-05T01:45:04.988Z,51.53
2017-11-05T01:47:32.593Z,49.20
2017-11-05T01:50:00.222Z,57.80
2017-11-05T01:52:27.808Z,51.77
2017-11-05T01:54:55.449Z,48.00
2017-11-05T01:57:23.057Z,60.43
2017-11-05T01:59:50.670Z,48.33
2017-11-05T02:02:18.334Z,48.57
2017-11-05T02:04:45.989Z,51.93
2017-11-05T02:07:14.515Z,47.90
2017-11-05T02:09:42.133Z,52.27
2017-11-05T02:12:09.728Z,50.57
2017-11-05T02:14:37.679Z,48.20
2017-11-05T02:17:05.545Z,49.07
2017-11-05T02:19:33.187Z,51.13
2017-11-05T02:22:00.773Z,52.27
2017-11-05T02:24:28.375Z,61.13
2017-11-05T02:26:56.066Z,49.70
2017-11-05T02:29:23.659Z,43.30
2017-11-05T02:31:51.290Z,48.77
2017-11-05T02:34:18.946Z,46.30
2017-11-05T02:36:46.611Z,49.37
2017-11-05T02:39:14.235Z,44.80
2017-11-05T02:41:41.835Z,53.13
2017-11-05T02:44:09.476Z,50.93
2017-11-05T02:46:37.076Z,50.40
2017-11-05T02:49:04.668Z,52.23
2017-11-05T02:51:32.323Z,52.57
2017-11-05T02:53:59.912Z,54.13
2017-11-05T02:56:27.594Z,51.20
2017-11-05T02:58:55.210Z,64.63
2017-11-05T03:01:22.800Z,49.30
2017-11-05T03:03:50.432Z,50.43
2017-11-05T03:06:18.111Z,52.10
2017-11-05T03:08:45.744Z,47.43
2017-11-05T03:11:13.349Z,57.03
2017-11-05T03:13:40.941Z,47.70
2017-11-05T03:16:08.585Z,51.77
2017-11-05T03:18:36.251Z,54.07
2017-11-05T03:21:03.905Z,55.30
2017-11-05T03:23:31.509Z,50.23
2017-11-05T03:25:59.116Z,56.17
2017-11-05T03:28:27.066Z,47.57
2017-11-05T03:30:54.712Z,45.70
2017-11-05T03:33:22.410Z,50.03
2017-11-05T03:35:50.379Z,46.17
2017-11-05T03:38:17.989Z,59.63
2017-11-05T03:40:45.629Z,52.03
2017-11-05T03:43:13.549Z,51.93
2017-11-05T03:45:41.200Z,49.50
2017-11-05T03:48:08.826Z,45.00
2017-11-05T03:50:36.754Z,52.87
2017-11-05T03:53:04.375Z,54.90
2017-11-05T03:55:32.025Z,53.73
2017-11-05T03:57:59.685Z,49.40
2017-11-05T04:00:27.606Z,55.10
2017-11-05T04:02:55.213Z,57.77
2017-11-05T04:05:22.850Z,48.57
2017-11-05T04:07:50.490Z,49.23
2017-11-05T04:10:18.125Z,47.40
2017-11-05T04:12:45.739Z,53.20
2017-11-05T04:15:13.353Z,45.80
2017-11-05T04:17:40.985Z,52.27
2017-11-05T04:20:08.602Z,52.30
2017-11-05T04:22:36.259Z,49.97
2017-11-05T04:25:03.857Z,52.13
2017-11-05T04:27:31.445Z,47.70
2017-11-05T04:29:59.088Z,51.67
2017-11-05T04:32:26.720Z,55.27
2017-11-05T04:34:54.368Z,45.17
2017-11-05T04:37:22.053Z,49.37
2017-11-05T04:39:49.948Z,51.40
2017-11-05T04:42:17.584Z,49.43
2017-11-05T04:44:45.173Z,50.27
2017-11-05T04:47:12.826Z,52.23
2017-11-05T04:49:40.424Z,57.60
2017-11-05T04:52:08.031Z,54.33
2017-11-05T04:54:35.706Z,51.80
2017-11-05T04:57:03.350Z,48.67
2017-11-05T04:59:31.006Z,58.80
2017-11-05T05:01:58.647Z,52.00
2017-11-05T05:04:26.284Z,48.90
2017-11-05T05:06:53.922Z,47.70
2017-11-05T05:09:21.560Z,56.67
2017-11-05T05:11:49.632Z,51.17
2017-11-05T05:14:17.237Z,54.13
2017-11-05T05:16:45.028Z,53.67
2017-11-05T05:19:12.650Z,51.60
2017-11-05T05:21:40.316Z,51.23
2017-11-05T05:24:07.987Z,55.77
2017-11-05T05:26:35.608Z,55.67
2017-11-05T05:29:03.236Z,49.60
2017-11-05T05:31:30.875Z,49.33
2017-11-05T05:33:58.490Z,51.37
2017-11-05T05:36:26.156Z,48.50
2017-11-05T05:38:53.751Z,53.30
2017-11-05T05:41:21.372Z,60.47
2017-11-05T05:43:49.028Z,62.23
2017-11-05T05:46:16.637Z,57.93
2017-11-05T05:48:44.300Z,60.37
2017-11-05T05:51:11.932Z,56.50
2017-11-05T05:53:39.539Z,53.00
2017-11-05T05:56:07.169Z,49.13
2017-11-05T05:58:34.820Z,55.50
2017-11-05T06:01:02.519Z,56.87
2017-11-05T06:03:30.460Z,53.80
2017-11-05T06:05:58.912Z,51.83
2017-11-05T06:08:26.528Z,47.17
2017-11-05T06:10:54.124Z,52.67
2017-11-05T06:13:21.768Z,60.57
2017-11-05T06:15:49.695Z,49.30
2017-11-05T06:18:17.348Z,64.37
2017-11-05T06:20:44.977Z,51.50
2017-11-05T06:23:12.607Z,47.13
2017-11-05T06:25:40.651Z,57.27
2017-11-05T06:28:08.249Z,50.20
2017-11-05T06:30:35.876Z,50.37
2017-11-05T06:33:03.498Z,57.97
2017-11-05T06:35:31.146Z,49.33
2017-11-05T06:37:58.798Z,50.53
2017-11-05T06:40:26.730Z,50.20
2017-11-05T06:42:54.363Z,54.70
2017-11-05T06:45:22.157Z,47.63
2017-11-05T06:47:49.756Z,50.50
2017-11-05T06:50:17.446Z,53.43
2017-11-05T06:52:45.089Z,54.67
2017-11-05T06:55:12.730Z,52.60
2017-11-05T06:57:40.388Z,54.43
2017-11-05T07:00:08.011Z,51.20
2017-11-05T07:02:35.652Z,54.50
2017-11-05T07:05:03.241Z,55.20
2017-11-05T07:07:30.849Z,47.20
2017-11-05T07:09:58.480Z,50.63
2017-11-05T07:12:26.069Z,52.27
2017-11-05T07:14:53.700Z,48.33
2017-11-05T07:17:21.299Z,61.30
2017-11-05T07:19:49.446Z,50.60
2017-11-05T07:22:17.516Z,49.23
2017-11-05T07:24:45.167Z,48.43
2017-11-05T07:27:12.817Z,62.20
2017-11-05T07:29:40.446Z,52.03
2017-11-05T07:32:08.041Z,48.37
2017-11-05T07:34:35.939Z,54.53
2017-11-05T07:37:03.617Z,51.73
2017-11-05T07:39:31.242Z,51.30
2017-11-05T07:41:58.937Z,51.60
2017-11-05T07:44:26.564Z,46.53
2017-11-05T07:46:55.121Z,49.67
2017-11-05T07:49:22.712Z,59.73
2017-11-05T07:51:50.704Z,51.90
2017-11-05T07:54:18.336Z,52.20
2017-11-05T07:56:45.933Z,52.80
2017-11-05T07:59:13.542Z,55.53
2017-11-05T08:01:41.260Z,54.87
2017-11-05T08:04:08.884Z,50.40
2017-11-05T08:06:36.517Z,56.33
2017-11-05T08:09:04.160Z,51.17
2017-11-05T08:11:31.764Z,54.27
2017-11-05T08:13:59.896Z,53.47
2017-11-05T08:16:27.514Z,53.53
2017-11-05T08:18:55.124Z,68.57
2017-11-05T08:21:22.783Z,58.73
2017-11-05T08:23:50.379Z,51.30
2017-11-05T08:26:18.021Z,53.13
2017-11-05T08:28:45.627Z,57.63
2017-11-05T08:31:13.658Z,53.97
2017-11-05T08:33:41.345Z,61.27
2017-11-05T08:36:09.009Z,56.17
2017-11-05T08:38:37.650Z,55.17
2017-11-05T08:41:05.718Z,51.43
2017-11-05T08:43:33.836Z,53.37
2017-11-05T08:46:01.591Z,52.57
2017-11-05T08:48:29.212Z,53.23
2017-11-05T08:50:56.862Z,52.90
2017-11-05T08:53:24.541Z,58.30
2017-11-05T08:55:52.311Z,64.97
2017-11-05T08:58:19.947Z,53.97
2017-11-05T09:00:47.612Z,60.13
2017-11-05T09:03:15.294Z,51.53
2017-11-05T09:05:42.924Z,54.17
2017-11-05T09:08:10.562Z,61.03
2017-11-05T09:10:38.224Z,58.17
2017-11-05T09:13:05.854Z,55.20
2017-11-05T09:15:33.617Z,56.73
2017-11-05T09:18:01.272Z,52.43
2017-11-05T09:20:29.607Z,51.43
2017-11-05T09:22:57.417Z,52.43
2017-11-05T09:25:25.023Z,53.80
2017-11-05T09:27:53.763Z,48.53
2017-11-05T09:30:25.433Z,50.97
2017-11-05T09:32:53.852Z,54.83
2017-11-05T09:35:24.490Z,53.73
2017-11-05T09:37:52.467Z,58.20
2017-11-05T09:40:23.735Z,54.00
2017-11-05T09:42:51.357Z,59.80
2017-11-05T09:45:22.580Z,58.87
2017-11-05T09:47:50.318Z,56.80
2017-11-05T09:50:17.991Z,53.93
2017-11-05T09:52:45.651Z,55.50
2017-11-05T09:55:13.253Z,51.67
2017-11-05T09:57:40.912Z,55.63
2017-11-05T10:00:08.577Z,54.70
2017-11-05T10:02:36.182Z,58.73
2017-11-05T10:05:04.291Z,52.77
2017-11-05T10:07:31.897Z,52.53
2017-11-05T10:09:59.557Z,53.10
2017-11-05T10:12:28.181Z,59.03
2017-11-05T10:14:56.154Z,48.60
2017-11-05T10:17:23.800Z,52.13
2017-11-05T10:19:51.476Z,59.10
2017-11-05T10:22:19.152Z,52.67
2017-11-05T10:24:46.832Z,55.10
2017-11-05T10:27:14.446Z,50.90
2017-11-05T10:29:42.102Z,56.90
2017-11-05T10:32:09.721Z,63.17
2017-11-05T10:34:37.379Z,53.93
2017-11-05T10:37:04.992Z,49.47
2017-11-05T10:39:32.633Z,54.43
2017-11-05T10:42:00.526Z,64.83
2017-11-05T10:44:28.185Z,51.20
2017-11-05T10:46:55.845Z,61.33
2017-11-05T10:49:23.526Z,50.13
2017-11-05T10:51:51.510Z,50.03
2017-11-05T10:54:19.141Z,47.87
2017-11-05T10:56:46.737Z,55.37
2017-11-05T10:59:14.407Z,52.43
2017-11-05T11:01:42.059Z,50.60
2017-11-05T11:04:09.684Z,48.40
2017-11-05T11:06:37.345Z,48.73
2017-11-05T11:09:05.039Z,44.60
2017-11-05T11:11:32.688Z,40.10
2017-11-05T11:14:00.330Z,48.93
2017-11-05T11:16:27.993Z,46.53
2017-11-05T11:18:55.650Z,48.63
2017-11-05T11:21:23.324Z,46.13
2017-11-05T11:23:51.317Z,47.73
2017-11-05T11:26:19.516Z,44.83
2017-11-05T11:28:47.376Z,43.80
2017-11-05T11:31:14.997Z,57.00
2017-11-05T11:33:42.646Z,52.40
2017-11-05T11:36:10.339Z,49.83
2017-11-05T11:38:37.945Z,43.73
2017-11-05T11:41:05.584Z,43.83
2017-11-05T11:43:33.230Z,44.60
2017-11-05T11:46:00.824Z,45.10
2017-11-05T11:48:28.695Z,44.60
2017-11-05T11:50:56.469Z,47.13
2017-11-05T11:53:24.101Z,54.50
2017-11-05T11:55:51.755Z,57.60
2017-11-05T11:58:19.424Z,41.50
2017-11-05T12:00:47.082Z,47.00
2017-11-05T12:03:14.782Z,56.13
2017-11-05T12:05:42.407Z,43.63
2017-11-05T12:08:10.066Z,47.53
2017-11-05T12:10:37.665Z,39.90
2017-11-05T12:13:05.325Z,37.07
2017-11-05T12:15:32.942Z,39.27
2017-11-05T12:18:01.083Z,38.10
2017-11-05T12:20:29.141Z,41.50
2017-11-05T12:22:56.950Z,43.20
2017-11-05T12:25:24.678Z,40.60
2017-11-05T12:27:52.279Z,39.57
2017-11-05T12:30:20.001Z,45.53
2017-11-05T12:32:47.644Z,41.97
2017-11-05T12:35:15.242Z,47.33
2017-11-05T12:37:42.885Z,37.23
2017-11-05T12:40:10.555Z,36.93
2017-11-05T12:42:38.210Z,38.43
2017-11-05T12:45:05.872Z,37.03
2017-11-05T12:47:33.733Z,34.40
2017-11-05T12:50:01.400Z,33.47
2017-11-05T12:52:29.008Z,41.17
2017-11-05T12:54:56.625Z,43.73
2017-11-05T12:57:24.264Z,36.40
2017-11-05T12:59:51.889Z,35.07
2017-11-05T13:02:19.545Z,40.60
2017-11-05T13:04:47.469Z,39.07
2017-11-05T13:07:15.061Z,35.17
2017-11-05T13:09:42.692Z,43.33
2017-11-05T13:12:10.319Z,36.17
2017-11-05T13:14:38.019Z,32.93
2017-11-05T13:17:05.649Z,37.73
2017-11-05T13:19:33.261Z,36.53
2017-11-05T13:22:00.883Z,36.53
2017-11-05T13:24:28.471Z,38.70
2017-11-05T13:26:56.127Z,39.43
2017-11-05T13:29:24.200Z,36.90
2017-11-05T13:31:51.801Z,42.40
2017-11-05T13:34:19.419Z,41.90
2017-11-05T13:36:47.029Z,38.87
2017-11-05T13:39:14.958Z,41.33
2017-11-05T13:41:42.615Z,33.27
2017-11-05T13:44:10.272Z,32.10
2017-11-05T13:46:37.919Z,37.10
2017-11-05T13:49:05.517Z,38.07
2017-11-05T13:51:33.471Z,45.97
2017-11-05T13:54:01.091Z,39.40
2017-11-05T13:56:29.001Z,32.60
2017-11-05T13:58:56.624Z,46.20
2017-11-05T14:01:24.224Z,30.37
2017-11-05T14:03:51.897Z,38.57
2017-11-05T14:06:19.500Z,37.23
2017-11-05T14:08:47.421Z,39.70
2017-11-05T14:11:15.082Z,44.67
2017-11-05T14:13:42.745Z,36.70
2017-11-05T14:16:10.396Z,34.20
2017-11-05T14:18:38.018Z,32.57
2017-11-05T14:21:05.674Z,33.37
2017-11-05T14:23:33.346Z,40.97
2017-11-05T14:26:02.862Z,37.10
2017-11-05T14:28:30.878Z,39.70
2017-11-05T14:30:58.678Z,42.80
2017-11-05T14:33:26.334Z,33.70
2017-11-05T14:35:54.039Z,32.70
2017-11-05T14:38:22.477Z,35.37
2017-11-05T14:40:51.804Z,38.60
2017-11-05T14:43:21.786Z,39.30
2017-11-05T14:45:49.749Z,36.13
2017-11-05T14:48:18.040Z,33.33
2017-11-05T14:50:45.680Z,39.00
2017-11-05T14:53:13.360Z,42.57
2017-11-05T14:55:41.022Z,41.70
2017-11-05T14:58:08.672Z,40.37
2017-11-05T15:00:36.339Z,42.63
2017-11-05T15:03:03.957Z,35.57
2017-11-05T15:05:31.753Z,36.20
2017-11-05T15:07:59.392Z,44.13
2017-11-05T15:10:27.000Z,42.37
2017-11-05T15:12:54.658Z,44.33
2017-11-05T15:15:22.630Z,42.17
2017-11-05T15:17:50.349Z,46.83
2017-11-05T15:20:17.980Z,46.73
2017-11-05T15:22:45.613Z,41.73
2017-11-05T15:25:13.272Z,39.27
2017-11-05T15:27:40.924Z,44.97
2017-11-05T15:30:08.594Z,42.60
2017-11-05T15:32:36.238Z,44.47
2017-11-05T15:35:03.888Z,42.80
2017-11-05T15:37:31.542Z,46.93
2017-11-05T15:39:59.513Z,53.20
2017-11-05T15:42:27.168Z,49.20
2017-11-05T15:44:55.009Z,44.97
2017-11-05T15:47:22.674Z,45.73
2017-11-05T15:49:50.382Z,51.03
2017-11-05T15:52:17.982Z,47.93
2017-11-05T15:54:45.617Z,45.57
2017-11-05T15:57:13.241Z,52.13
2017-11-05T15:59:41.166Z,49.13
2017-11-05T16:02:08.804Z,65.20
2017-11-05T16:04:36.499Z,57.10
2017-11-05T16:07:04.128Z,54.80
2017-11-05T16:09:31.766Z,54.73
2017-11-05T16:11:59.421Z,62.53
2017-11-05T16:14:27.015Z,54.67
2017-11-05T16:16:54.656Z,58.33
2017-11-05T16:19:22.281Z,50.43
2017-11-05T16:21:49.915Z,55.60
2017-11-05T16:24:17.626Z,50.10
2017-11-05T16:26:45.241Z,53.90
2017-11-05T16:29:12.879Z,50.00
2017-11-05T16:31:40.541Z,52.77
2017-11-05T16:34:08.195Z,42.27
2017-11-05T16:36:35.862Z,44.80
2017-11-05T16:39:03.558Z,45.53
2017-11-05T16:41:31.271Z,25.00
2017-11-05T16:43:59.212Z,25.43
2017-11-05T16:46:26.818Z,20.60
2017-11-05T16:48:54.529Z,14.07
2017-11-05T16:51:22.501Z,11.50
2017-11-05T16:53:50.090Z,13.20
2017-11-05T16:56:17.768Z,11.93
2017-11-05T16:58:45.371Z,10.80
2017-11-05T17:01:13.035Z,12.63
2017-11-05T17:03:40.654Z,11.17
2017-11-05T17:06:08.581Z,10.90
2017-11-05T17:08:36.549Z,9.93
2017-11-05T17:11:04.150Z,10.10
2017-11-05T17:13:31.854Z,9.80
2017-11-05T17:15:59.741Z,9.20
2017-11-05T17:18:27.727Z,18.93
2017-11-05T17:20:55.417Z,10.83
2017-11-05T17:23:23.051Z,13.60
2017-11-05T17:25:51.560Z,12.20
2017-11-05T17:28:19.195Z,10.07
2017-11-05T17:30:46.809Z,9.40
2017-11-05T17:33:14.444Z,10.00
2017-11-05T17:35:42.126Z,12.80
2017-11-05T17:38:09.837Z,10.73
2017-11-05T17:40:37.715Z,11.37
2017-11-05T17:43:05.397Z,10.20
2017-11-05T17:45:33.077Z,9.80
2017-11-05T17:48:00.757Z,11.40
2017-11-05T17:50:28.385Z,9.90
2017-11-05T17:52:56.022Z,10.10
2017-11-05T17:55:23.649Z,12.47
2017-11-05T17:57:51.312Z,11.87
2017-11-05T18:00:19.435Z,9.80
2017-11-05T18:02:47.097Z,9.43
2017-11-05T18:05:14.762Z,12.60
2017-11-05T18:07:42.369Z,9.70
2017-11-05T18:10:10.070Z,9.17
2017-11-05T18:12:37.688Z,12.10
2017-11-05T18:15:05.400Z,9.57
2017-11-05T18:17:33.294Z,10.37
2017-11-05T18:20:00.921Z,13.50
2017-11-05T18:22:29.233Z,9.60
2017-11-05T18:24:56.866Z,12.27
2017-11-05T18:27:24.643Z,10.97
2017-11-05T18:29:52.288Z,12.73
2017-11-05T18:32:19.952Z,9.57
2017-11-05T18:34:47.592Z,9.70
2017-11-05T18:37:15.188Z,9.70
2017-11-05T18:39:45.313Z,17.07
2017-11-05T18:42:12.995Z,10.20
2017-11-05T18:44:40.638Z,14.47
2017-11-05T18:47:08.284Z,10.37
2017-11-05T18:49:36.599Z,10.07
2017-11-05T18:52:04.224Z,11.03
2017-11-05T18:54:31.824Z,11.50
2017-11-05T18:56:59.465Z,13.40
2017-11-05T18:59:27.164Z,12.30
2017-11-05T19:01:54.801Z,11.60
2017-11-05T19:04:22.437Z,14.40
2017-11-05T19:06:50.029Z,10.33
2017-11-05T19:09:17.628Z,11.80
2017-11-05T19:11:45.317Z,15.73
2017-11-05T19:14:12.931Z,14.63
2017-11-05T19:16:41.267Z,15.30
2017-11-05T19:19:08.882Z,10.37
2017-11-05T19:21:36.479Z,12.07
2017-11-05T19:24:04.101Z,10.77
2017-11-05T19:26:31.736Z,11.00
2017-11-05T19:28:59.694Z,10.60
2017-11-05T19:31:27.279Z,12.10
2017-11-05T19:33:54.864Z,16.50
2017-11-05T19:36:22.506Z,13.83
2017-11-05T19:38:50.145Z,12.30
2017-11-05T19:41:17.772Z,13.37
2017-11-05T19:43:45.373Z,15.20
2017-11-05T19:46:12.973Z,13.10
2017-11-05T19:48:40.597Z,17.80
2017-11-05T19:51:08.458Z,16.73
2017-11-05T19:53:36.084Z,14.83
2017-11-05T19:56:03.671Z,25.27
2017-11-05T19:58:31.268Z,13.37
2017-11-05T20:03:32.673Z,15.70
2017-11-05T20:06:00.592Z,15.20
2017-11-05T20:08:28.188Z,13.30
2017-11-05T20:10:55.809Z,13.90
2017-11-05T20:13:23.679Z,13.60
2017-11-05T20:15:51.280Z,12.63
2017-11-05T20:18:18.932Z,13.40
2017-11-05T20:20:46.524Z,16.33
2017-11-05T20:23:14.433Z,18.93
2017-11-05T20:25:42.074Z,15.87
2017-11-05T20:28:09.672Z,14.17
2017-11-05T20:30:37.300Z,19.00
2017-11-05T20:33:04.934Z,14.17
2017-11-05T20:35:32.658Z,19.73
2017-11-05T20:38:00.306Z,18.83
2017-11-05T20:40:27.975Z,16.33
2017-11-05T20:42:55.944Z,20.63
2017-11-05T20:45:23.568Z,17.10
2017-11-05T20:47:51.196Z,15.13
2017-11-05T20:50:18.830Z,23.50
2017-11-05T20:52:46.475Z,19.70
2017-11-05T20:55:14.139Z,16.03
2017-11-05T20:57:41.729Z,26.27
2017-11-05T21:00:10.196Z,18.83
2017-11-05T21:02:38.062Z,19.23
2017-11-05T21:05:05.643Z,23.23
2017-11-05T21:07:33.277Z,19.30
2017-11-05T21:10:00.872Z,23.43
2017-11-05T21:12:28.815Z,22.93
2017-11-05T21:14:56.447Z,17.37
2017-11-05T21:17:24.046Z,17.63
2017-11-05T21:19:51.682Z,19.83
2017-11-05T21:22:19.577Z,21.73
2017-11-05T21:24:47.188Z,21.63
2017-11-05T21:27:14.817Z,22.47
2017-11-05T21:29:42.444Z,18.90
2017-11-05T21:32:10.103Z,19.87
2017-11-05T21:34:37.770Z,21.80
2017-11-05T21:37:05.370Z,19.50
2017-11-05T21:39:33.092Z,18.93
2017-11-05T21:42:00.854Z,23.20
2017-11-05T21:44:28.507Z,19.50
2017-11-05T21:46:56.099Z,21.83
2017-11-05T21:49:23.728Z,20.77
2017-11-05T21:51:51.343Z,28.20
2017-11-05T21:54:18.937Z,27.40
2017-11-05T21:56:46.568Z,19.90
2017-11-05T21:59:14.155Z,22.90
2017-11-05T22:01:41.794Z,20.20
2017-11-05T22:04:09.419Z,19.97
2017-11-05T22:06:37.036Z,25.10
2017-11-05T22:09:04.673Z,29.80
2017-11-05T22:11:32.274Z,26.10
2017-11-05T22:13:59.894Z,23.93
2017-11-05T22:16:27.506Z,26.57
2017-11-05T22:18:55.095Z,31.57
2017-11-05T22:21:22.732Z,29.03
2017-11-05T22:23:50.338Z,23.07
2017-11-05T22:26:18.302Z,26.83
2017-11-05T22:28:45.944Z,22.40
2017-11-05T22:31:13.572Z,26.10
2017-11-05T22:33:41.205Z,25.03
2017-11-05T22:36:08.800Z,17.90
2017-11-05T22:38:36.388Z,20.60
2017-11-05T22:41:04.008Z,23.37
2017-11-05T22:43:31.944Z,23.63
2017-11-05T22:45:59.569Z,27.33
2017-11-05T22:48:27.176Z,20.00
2017-11-05T22:50:54.772Z,24.07
2017-11-05T22:53:22.423Z,26.90
2017-11-05T22:55:50.007Z,31.33
2017-11-05T22:58:18.027Z,26.10
2017-11-05T23:00:45.616Z,18.87
2017-11-05T23:03:13.252Z,23.10
2017-11-05T23:05:40.884Z,28.77
2017-11-05T23:08:08.511Z,28.30
2017-11-05T23:10:36.102Z,30.27
2017-11-05T23:13:03.753Z,37.47
2017-11-05T23:15:31.672Z,26.77
2017-11-05T23:17:59.268Z,28.30
2017-11-05T23:20:26.906Z,28.50
2017-11-05T23:22:54.507Z,20.93
2017-11-05T23:25:22.127Z,28.03
2017-11-05T23:27:49.756Z,27.83
2017-11-05T23:30:17.337Z,23.37
2017-11-05T23:32:44.969Z,21.37
2017-11-05T23:35:12.558Z,23.83
2017-11-05T23:37:40.162Z,29.00
2017-11-05T23:40:07.792Z,25.20
2017-11-05T23:42:35.377Z,21.53
2017-11-05T23:45:03.021Z,27.97
2017-11-05T23:47:30.874Z,27.53
2017-11-05T23:49:58.519Z,24.13
2017-11-05T23:52:26.163Z,29.37
2017-11-05T23:54:53.755Z,34.43
2017-11-05T23:57:21.393Z,31.80
2017-11-05T23:59:48.988Z,19.43
